createdAt,value
2018-08-18T00:00:10.922Z,6.20
2018-08-18T00:02:45.040Z,7.10
2018-08-18T00:05:19.099Z,6.93
2018-08-18T00:07:53.117Z,6.20
2018-08-18T00:10:27.216Z,6.97
2018-08-18T00:13:01.198Z,7.17
2018-08-18T00:15:35.214Z,7.00
2018-08-18T00:18:09.683Z,8.03
2018-08-18T00:20:43.889Z,7.37
2018-08-18T00:23:18.011Z,7.20
2018-08-18T00:25:51.846Z,6.67
2018-08-18T00:28:25.893Z,6.73
2018-08-18T00:30:59.805Z,6.77
2018-08-18T00:33:33.835Z,6.67
2018-08-18T00:36:08.039Z,6.43
2018-08-18T00:38:41.778Z,6.50
2018-08-18T00:41:16.469Z,6.70
2018-08-18T00:43:50.190Z,6.80
2018-08-18T00:46:27.943Z,6.93
2018-08-18T00:49:02.090Z,6.97
2018-08-18T00:51:40.194Z,7.37
2018-08-18T00:54:14.220Z,6.77
2018-08-18T00:56:48.072Z,7.23
2018-08-18T00:59:33.510Z,6.93
2018-08-18T01:02:07.916Z,6.87
2018-08-18T01:04:47.394Z,6.90
2018-08-18T01:07:21.299Z,7.13
2018-08-18T01:09:55.685Z,7.23
2018-08-18T01:12:29.894Z,5.97
2018-08-18T01:15:06.614Z,6.83
2018-08-18T01:17:40.289Z,6.07
2018-08-18T01:20:14.395Z,7.13
2018-08-18T01:22:53.640Z,6.97
2018-08-18T01:25:27.523Z,6.40
2018-08-18T01:28:01.496Z,6.53
2018-08-18T01:30:35.479Z,7.20
2018-08-18T01:33:09.469Z,6.70
2018-08-18T01:35:43.406Z,7.70
2018-08-18T01:38:17.234Z,7.97
2018-08-18T01:40:51.228Z,7.50
2018-08-18T01:43:25.118Z,6.50
2018-08-18T01:45:59.511Z,7.40
2018-08-18T01:48:33.539Z,7.30
2018-08-18T01:51:15.545Z,7.20
2018-08-18T01:53:50.255Z,7.20
2018-08-18T01:56:24.180Z,7.23
2018-08-18T01:58:58.209Z,7.40
2018-08-18T02:01:32.236Z,7.03
2018-08-18T02:04:06.834Z,6.67
2018-08-18T02:06:40.739Z,6.90
2018-08-18T02:09:14.948Z,7.20
2018-08-18T02:11:52.638Z,7.33
2018-08-18T02:14:26.386Z,7.50
2018-08-18T02:17:11.874Z,7.50
2018-08-18T02:19:45.805Z,7.27
2018-08-18T02:22:19.924Z,7.93
2018-08-18T02:24:53.911Z,7.53
2018-08-18T02:27:28.040Z,7.43
2018-08-18T02:30:18.639Z,7.10
2018-08-18T02:32:52.721Z,7.70
2018-08-18T02:35:26.896Z,7.37
2018-08-18T02:38:00.795Z,7.20
2018-08-18T02:40:34.843Z,7.10
2018-08-18T02:43:19.987Z,7.67
2018-08-18T02:45:53.971Z,7.93
2018-08-18T02:48:27.880Z,8.30
2018-08-18T02:51:01.928Z,8.50
2018-08-18T02:53:35.654Z,8.40
2018-08-18T02:56:09.531Z,8.37
2018-08-18T02:58:48.365Z,7.63
2018-08-18T03:01:26.806Z,8.20
2018-08-18T03:04:01.155Z,8.13
2018-08-18T03:06:35.312Z,8.43
2018-08-18T03:09:10.841Z,8.73
2018-08-18T03:11:44.873Z,8.10
2018-08-18T03:14:19.254Z,8.43
2018-08-18T03:16:53.362Z,7.90
2018-08-18T03:19:27.484Z,7.87
2018-08-18T03:22:01.390Z,8.23
2018-08-18T03:24:35.626Z,8.13
2018-08-18T03:27:09.593Z,7.43
2018-08-18T03:29:49.181Z,7.70
2018-08-18T03:32:22.915Z,8.03
2018-08-18T03:34:57.166Z,7.50
2018-08-18T03:37:31.940Z,7.80
2018-08-18T03:40:06.250Z,7.80
2018-08-18T03:42:42.086Z,7.90
2018-08-18T03:45:15.823Z,8.27
2018-08-18T03:47:49.818Z,8.30
2018-08-18T03:50:27.469Z,7.80
2018-08-18T03:53:01.360Z,7.80
2018-08-18T03:55:38.503Z,8.30
2018-08-18T03:58:12.536Z,8.67
2018-08-18T04:00:46.278Z,9.30
2018-08-18T04:03:20.328Z,8.93
2018-08-18T04:05:54.081Z,8.63
2018-08-18T04:08:28.039Z,11.13
2018-08-18T04:11:01.805Z,9.20
2018-08-18T04:13:36.159Z,9.90
2018-08-18T04:16:09.988Z,8.70
2018-08-18T04:18:44.994Z,8.50
2018-08-18T04:21:18.864Z,9.00
2018-08-18T04:23:52.974Z,8.73
2018-08-18T04:26:26.900Z,9.33
2018-08-18T04:29:01.020Z,9.30
2018-08-18T04:31:35.609Z,9.20
2018-08-18T04:34:09.581Z,10.00
2018-08-18T04:36:43.706Z,8.90
2018-08-18T04:39:17.601Z,9.17
2018-08-18T04:41:51.678Z,9.23
2018-08-18T04:44:26.029Z,9.10
2018-08-18T04:47:00.127Z,9.60
2018-08-18T04:49:34.066Z,9.50
2018-08-18T04:52:08.094Z,9.87
2018-08-18T04:54:41.851Z,9.57
2018-08-18T04:57:15.809Z,9.87
2018-08-18T04:59:49.731Z,9.30
2018-08-18T05:02:23.620Z,9.53
2018-08-18T05:04:57.579Z,9.20
2018-08-18T05:07:36.074Z,9.40
2018-08-18T05:10:10.096Z,9.10
2018-08-18T05:12:44.052Z,8.40
2018-08-18T05:15:18.899Z,8.80
2018-08-18T05:17:52.756Z,8.83
2018-08-18T05:20:27.395Z,9.00
2018-08-18T05:23:19.212Z,10.30
2018-08-18T05:25:53.675Z,9.37
2018-08-18T05:28:28.174Z,10.17
2018-08-18T05:31:02.059Z,9.40
2018-08-18T05:33:36.085Z,9.13
2018-08-18T05:36:10.696Z,9.97
2018-08-18T05:38:44.860Z,9.93
2018-08-18T05:41:18.970Z,9.37
2018-08-18T05:43:52.709Z,9.13
2018-08-18T05:46:26.699Z,9.27
2018-08-18T05:49:06.399Z,9.60
2018-08-18T05:51:42.556Z,8.70
2018-08-18T05:54:25.205Z,9.60
2018-08-18T05:56:59.212Z,8.47
2018-08-18T05:59:34.192Z,9.03
2018-08-18T06:02:08.615Z,8.67
2018-08-18T06:04:42.669Z,8.73
2018-08-18T06:07:16.485Z,8.50
2018-08-18T06:09:50.586Z,8.43
2018-08-18T06:12:24.680Z,8.47
2018-08-18T06:14:58.358Z,8.23
2018-08-18T06:17:32.814Z,8.33
2018-08-18T06:20:07.312Z,8.73
2018-08-18T06:22:41.429Z,7.70
2018-08-18T06:25:15.194Z,7.80
2018-08-18T06:27:48.974Z,8.43
2018-08-18T06:30:22.950Z,7.93
2018-08-18T06:32:57.106Z,8.00
2018-08-18T06:35:31.585Z,7.67
2018-08-18T06:38:05.910Z,8.63
2018-08-18T06:40:40.108Z,7.70
2018-08-18T06:43:14.264Z,7.07
2018-08-18T06:45:48.431Z,7.40
2018-08-18T06:48:22.874Z,7.42
2018-08-18T06:50:57.154Z,8.63
2018-08-18T06:53:36.671Z,9.53
2018-08-18T06:56:10.772Z,8.93
2018-08-18T06:58:45.652Z,8.30
2018-08-18T07:01:19.389Z,9.00
2018-08-18T07:03:53.237Z,9.18
2018-08-18T07:06:27.216Z,8.95
2018-08-18T07:09:01.513Z,8.35
2018-08-18T07:11:35.457Z,10.25
2018-08-18T07:14:09.466Z,10.15
2018-08-18T07:16:43.420Z,10.00
2018-08-18T07:19:17.176Z,10.03
2018-08-18T07:21:51.195Z,9.90
2018-08-18T07:24:25.190Z,9.43
2018-08-18T07:26:59.399Z,10.45
2018-08-18T07:29:46.065Z,10.60
2018-08-18T07:32:20.021Z,10.63
2018-08-18T07:34:54.116Z,11.25
2018-08-18T07:37:28.759Z,9.93
2018-08-18T07:40:02.798Z,9.88
2018-08-18T07:42:36.861Z,10.65
2018-08-18T07:45:10.644Z,9.90
2018-08-18T07:47:44.924Z,9.13
2018-08-18T07:50:18.915Z,8.95
2018-08-18T07:52:59.733Z,8.53
2018-08-18T07:55:33.656Z,9.33
2018-08-18T07:58:11.994Z,9.73
2018-08-18T08:00:46.030Z,9.80
2018-08-18T08:03:20.428Z,10.48
2018-08-18T08:05:54.579Z,9.33
2018-08-18T08:09:01.136Z,9.13
2018-08-18T08:11:35.152Z,9.63
2018-08-18T08:14:09.257Z,9.53
2018-08-18T08:16:43.154Z,9.28
2018-08-18T08:19:17.185Z,8.80
2018-08-18T08:21:51.562Z,8.90
2018-08-18T08:24:25.726Z,8.60
2018-08-18T08:26:59.877Z,8.15
2018-08-18T08:29:38.521Z,7.95
2018-08-18T08:32:12.530Z,8.45
2018-08-18T08:34:47.050Z,8.55
2018-08-18T08:37:21.090Z,8.08
2018-08-18T08:39:55.364Z,8.25
2018-08-18T08:42:29.380Z,7.28
2018-08-18T08:45:03.617Z,7.72
2018-08-18T08:47:37.790Z,6.72
2018-08-18T08:50:13.385Z,5.87
2018-08-18T08:52:51.559Z,6.08
2018-08-18T08:55:26.947Z,5.12
2018-08-18T08:58:01.011Z,5.33
2018-08-18T09:00:35.145Z,5.03
2018-08-18T09:03:09.430Z,4.25
2018-08-18T09:05:43.465Z,4.03
2018-08-18T09:08:17.688Z,4.35
2018-08-18T09:10:51.815Z,3.80
2018-08-18T09:13:25.814Z,3.62
2018-08-18T09:15:59.755Z,3.20
2018-08-18T09:18:34.071Z,4.33
2018-08-18T09:21:08.045Z,2.77
2018-08-18T09:23:42.944Z,3.33
2018-08-18T09:26:16.954Z,3.83
2018-08-18T09:28:50.743Z,3.02
2018-08-18T09:31:24.640Z,2.70
2018-08-18T09:33:58.691Z,4.95
2018-08-18T09:36:32.615Z,4.03
2018-08-18T09:39:10.282Z,3.95
2018-08-18T09:41:44.940Z,3.40
2018-08-18T09:44:24.181Z,4.92
2018-08-18T09:46:58.826Z,4.50
2018-08-18T09:49:33.204Z,5.17
2018-08-18T09:52:08.552Z,4.83
2018-08-18T09:54:42.611Z,5.05
2018-08-18T09:57:17.060Z,4.58
2018-08-18T09:59:50.975Z,4.30
2018-08-18T10:02:24.994Z,4.03
2018-08-18T10:04:59.036Z,3.50
2018-08-18T10:07:33.008Z,4.10
2018-08-18T10:10:08.975Z,3.80
2018-08-18T10:12:43.017Z,3.35
2018-08-18T10:17:59.359Z,3.17
2018-08-18T10:20:51.464Z,3.20
2018-08-18T10:23:25.596Z,3.00
2018-08-18T10:25:59.763Z,3.65
2018-08-18T10:28:33.729Z,3.95
2018-08-18T10:31:08.122Z,3.55
2018-08-18T10:33:42.265Z,2.92
2018-08-18T10:36:16.411Z,3.37
2018-08-18T10:38:50.429Z,3.60
2018-08-18T10:41:24.517Z,3.20
2018-08-18T10:43:58.686Z,3.42
2018-08-18T10:46:33.165Z,2.98
2018-08-18T10:49:11.135Z,3.12
2018-08-18T10:51:56.402Z,3.10
2018-08-18T10:54:30.503Z,3.33
2018-08-18T10:57:14.480Z,2.60
2018-08-18T10:59:49.890Z,3.20
2018-08-18T11:02:29.726Z,2.80
2018-08-18T11:05:04.502Z,2.87
2018-08-18T11:07:38.332Z,2.85
2018-08-18T11:10:12.595Z,2.92
2018-08-18T11:12:46.830Z,3.42
2018-08-18T11:15:20.696Z,3.70
2018-08-18T11:17:55.387Z,3.17
2018-08-18T11:20:31.021Z,2.70
2018-08-18T11:23:07.409Z,3.05
2018-08-18T11:25:56.097Z,3.50
2018-08-18T11:28:30.703Z,3.92
2018-08-18T11:31:04.957Z,3.70
2018-08-18T11:33:40.826Z,3.12
2018-08-18T11:36:14.946Z,3.70
2018-08-18T11:38:49.020Z,3.05
2018-08-18T11:41:23.822Z,3.62
2018-08-18T11:44:04.472Z,3.55
2018-08-18T11:46:42.959Z,3.33
2018-08-18T11:49:18.937Z,3.35
2018-08-18T11:51:54.654Z,3.20
2018-08-18T11:54:28.884Z,4.03
2018-08-18T11:57:02.935Z,3.20
2018-08-18T11:59:36.832Z,3.00
2018-08-18T12:02:10.861Z,2.52
2018-08-18T12:04:44.812Z,3.25
2018-08-18T12:07:18.750Z,2.55
2018-08-18T12:09:52.573Z,2.20
2018-08-18T12:12:26.475Z,2.72
2018-08-18T12:15:00.331Z,2.85
2018-08-18T12:17:36.207Z,2.98
2018-08-18T12:20:10.226Z,2.72
2018-08-18T12:22:44.167Z,2.98
2018-08-18T12:25:18.341Z,3.27
2018-08-18T12:27:52.620Z,3.12
2018-08-18T12:30:30.340Z,3.25
2018-08-18T12:33:20.385Z,3.00
2018-08-18T12:35:54.666Z,3.10
2018-08-18T12:38:28.712Z,2.65
2018-08-18T12:41:04.633Z,3.20
2018-08-18T12:43:40.441Z,3.50
2018-08-18T12:46:15.770Z,2.75
2018-08-18T12:48:51.509Z,2.30
2018-08-18T12:51:25.616Z,2.83
2018-08-18T12:53:59.790Z,3.00
2018-08-18T12:56:33.821Z,2.87
2018-08-18T12:59:09.062Z,2.77
2018-08-18T13:01:45.550Z,2.35
2018-08-18T13:04:20.734Z,2.45
2018-08-18T13:06:55.222Z,3.75
2018-08-18T13:09:29.110Z,2.58
2018-08-18T13:12:03.381Z,2.25
2018-08-18T13:14:37.417Z,3.02
2018-08-18T13:17:11.545Z,2.55
2018-08-18T13:19:45.330Z,2.67
2018-08-18T13:22:19.475Z,2.55
2018-08-18T13:24:53.964Z,2.77
2018-08-18T13:27:27.982Z,2.60
2018-08-18T13:30:02.095Z,2.25
2018-08-18T13:32:36.159Z,3.30
2018-08-18T13:35:10.291Z,3.65
2018-08-18T13:37:44.212Z,2.65
2018-08-18T13:40:18.465Z,2.30
2018-08-18T13:42:52.539Z,2.40
2018-08-18T13:45:43.812Z,2.45
2018-08-18T13:48:18.215Z,2.20
2018-08-18T13:50:52.005Z,2.22
2018-08-18T13:53:26.056Z,2.80
2018-08-18T13:56:00.520Z,2.42
2018-08-18T13:58:34.577Z,2.80
2018-08-18T14:01:24.415Z,2.92
2018-08-18T14:03:58.652Z,2.30
2018-08-18T14:06:39.277Z,3.20
2018-08-18T14:09:13.116Z,2.70
2018-08-18T14:11:47.082Z,2.98
2018-08-18T14:14:21.120Z,3.00
2018-08-18T14:16:55.085Z,2.92
2018-08-18T14:19:29.605Z,3.95
2018-08-18T14:22:05.831Z,2.80
2018-08-18T14:24:40.790Z,2.50
2018-08-18T14:27:17.282Z,3.10
2018-08-18T14:29:51.209Z,2.90
2018-08-18T14:32:27.397Z,2.90
2018-08-18T14:35:04.972Z,2.83
2018-08-18T14:37:40.460Z,3.12
2018-08-18T14:40:17.030Z,2.90
2018-08-18T14:42:51.394Z,2.80
2018-08-18T14:45:26.377Z,2.80
2018-08-18T14:48:00.401Z,2.80
2018-08-18T14:50:34.353Z,2.62
2018-08-18T14:53:13.926Z,2.52
2018-08-18T14:55:47.722Z,2.70
2018-08-18T14:58:27.027Z,2.45
2018-08-18T15:01:07.250Z,2.87
2018-08-18T15:03:41.774Z,2.80
2018-08-18T15:06:15.820Z,3.10
2018-08-18T15:08:49.827Z,2.65
2018-08-18T15:11:23.848Z,2.87
2018-08-18T15:13:57.688Z,4.70
2018-08-18T15:16:31.711Z,2.90
2018-08-18T15:19:05.913Z,2.50
2018-08-18T15:21:39.597Z,2.70
2018-08-18T15:24:13.726Z,2.72
2018-08-18T15:26:47.649Z,2.90
2018-08-18T15:29:21.663Z,3.00
2018-08-18T15:31:56.906Z,2.30
2018-08-18T15:34:30.881Z,2.87
2018-08-18T15:37:05.260Z,3.30
2018-08-18T15:39:39.473Z,3.25
2018-08-18T15:42:13.485Z,2.45
2018-08-18T15:44:56.904Z,2.75
2018-08-18T15:47:30.812Z,2.60
2018-08-18T15:50:05.150Z,2.90
2018-08-18T15:52:38.911Z,2.80
2018-08-18T15:55:13.137Z,2.60
2018-08-18T15:57:47.046Z,3.40
2018-08-18T16:00:29.781Z,2.52
2018-08-18T16:03:04.040Z,2.20
2018-08-18T16:05:38.071Z,2.33
2018-08-18T16:08:11.939Z,2.40
2018-08-18T16:10:45.888Z,2.80
2018-08-18T16:13:19.899Z,2.72
2018-08-18T16:15:53.859Z,2.50
2018-08-18T16:18:27.668Z,2.77
2018-08-18T16:21:10.195Z,2.52
2018-08-18T16:23:44.861Z,2.47
2018-08-18T16:26:18.816Z,2.67
2018-08-18T16:28:53.233Z,2.90
2018-08-18T16:31:27.709Z,2.77
2018-08-18T16:34:01.785Z,2.50
2018-08-18T16:36:41.020Z,2.02
2018-08-18T16:39:15.417Z,2.90
2018-08-18T16:41:50.124Z,2.72
2018-08-18T16:44:24.351Z,2.58
2018-08-18T16:46:58.432Z,2.50
2018-08-18T16:49:32.751Z,2.80
2018-08-18T16:52:07.026Z,3.52
2018-08-18T16:54:41.062Z,2.47
2018-08-18T16:57:14.893Z,2.60
2018-08-18T16:59:48.891Z,3.77
2018-08-18T17:02:34.541Z,2.80
2018-08-18T17:05:09.307Z,2.65
2018-08-18T17:07:43.627Z,2.67
2018-08-18T17:10:17.452Z,2.90
2018-08-18T17:12:51.376Z,2.85
2018-08-18T17:15:25.411Z,3.15
2018-08-18T17:17:59.537Z,2.83
2018-08-18T17:20:33.523Z,2.30
2018-08-18T17:23:07.291Z,2.30
2018-08-18T17:25:42.935Z,2.47
2018-08-18T17:28:17.043Z,3.00
2018-08-18T17:30:52.083Z,2.17
2018-08-18T17:33:27.303Z,3.10
2018-08-18T17:36:01.343Z,2.72
2018-08-18T17:38:35.125Z,2.30
2018-08-18T17:41:09.341Z,2.27
2018-08-18T17:43:43.237Z,2.08
2018-08-18T17:46:17.445Z,2.10
2018-08-18T17:48:53.077Z,2.27
2018-08-18T17:51:27.010Z,2.25
2018-08-18T17:54:00.945Z,2.10
2018-08-18T17:56:34.799Z,1.67
2018-08-18T17:59:08.978Z,1.90
2018-08-18T18:01:55.485Z,1.90
2018-08-18T18:04:30.267Z,2.20
2018-08-18T18:07:04.375Z,1.77
2018-08-18T18:09:38.432Z,1.87
2018-08-18T18:12:28.502Z,2.08
2018-08-18T18:15:09.686Z,2.12
2018-08-18T18:17:44.059Z,1.90
2018-08-18T18:20:18.105Z,2.05
2018-08-18T18:22:51.958Z,1.92
2018-08-18T18:25:32.857Z,2.00
2018-08-18T18:28:07.215Z,2.08
2018-08-18T18:30:41.122Z,2.17
2018-08-18T18:33:15.580Z,2.05
2018-08-18T18:35:50.380Z,2.17
2018-08-18T18:38:24.591Z,1.77
2018-08-18T18:40:58.706Z,2.10
2018-08-18T18:43:33.414Z,2.20
2018-08-18T18:46:07.384Z,2.00
2018-08-18T18:48:41.701Z,2.30
2018-08-18T18:51:16.027Z,2.30
2018-08-18T18:53:51.285Z,2.45
2018-08-18T18:56:25.917Z,2.62
2018-08-18T18:58:59.715Z,2.50
2018-08-18T19:01:33.847Z,2.55
2018-08-18T19:04:08.025Z,2.77
2018-08-18T19:06:55.030Z,2.70
2018-08-18T19:09:28.917Z,2.70
2018-08-18T19:12:03.128Z,2.52
2018-08-18T19:14:37.040Z,2.90
2018-08-18T19:17:11.147Z,2.95
2018-08-18T19:19:45.285Z,2.65
2018-08-18T19:22:19.436Z,2.60
2018-08-18T19:24:53.325Z,3.52
2018-08-18T19:27:27.315Z,3.12
2018-08-18T19:30:01.556Z,3.70
2018-08-18T19:32:35.740Z,3.40
2018-08-18T19:35:10.217Z,3.75
2018-08-18T19:37:49.595Z,3.30
2018-08-18T19:40:23.504Z,3.50
2018-08-18T19:42:58.222Z,3.40
2018-08-18T19:45:32.116Z,3.20
2018-08-18T19:48:06.150Z,2.92
2018-08-18T19:50:51.850Z,2.70
2018-08-18T19:53:27.985Z,2.65
2018-08-18T19:56:02.441Z,2.80
2018-08-18T19:58:36.300Z,2.50
2018-08-18T20:01:10.385Z,2.70
2018-08-18T20:03:44.726Z,2.77
2018-08-18T20:06:20.621Z,2.90
2018-08-18T20:08:54.506Z,3.22
2018-08-18T20:11:28.493Z,3.50
2018-08-18T20:14:02.510Z,3.47
2018-08-18T20:16:37.007Z,3.08
2018-08-18T20:19:10.966Z,3.65
2018-08-18T20:21:45.555Z,3.10
2018-08-18T20:24:19.897Z,3.15
2018-08-18T20:26:54.153Z,2.77
2018-08-18T20:29:28.415Z,3.10
2018-08-18T20:32:03.263Z,3.50
2018-08-18T20:34:37.169Z,3.22
2018-08-18T20:37:11.053Z,3.25
2018-08-18T20:39:45.108Z,3.30
2018-08-18T20:42:25.342Z,3.15
2018-08-18T20:44:59.735Z,3.15
2018-08-18T20:47:33.665Z,3.33
2018-08-18T20:50:09.012Z,3.10
2018-08-18T20:52:42.761Z,3.30
2018-08-18T20:55:16.756Z,2.92
2018-08-18T20:57:50.897Z,3.20
2018-08-18T21:00:24.917Z,3.12
2018-08-18T21:02:58.956Z,3.37
2018-08-18T21:05:33.346Z,3.30
2018-08-18T21:08:25.049Z,3.45
2018-08-18T21:10:59.241Z,3.60
2018-08-18T21:13:33.641Z,3.80
2018-08-18T21:16:07.781Z,3.55
2018-08-18T21:18:41.797Z,3.75
2018-08-18T21:21:30.197Z,3.92
2018-08-18T21:24:04.416Z,3.45
2018-08-18T21:26:38.696Z,3.95
2018-08-18T21:29:12.941Z,3.40
2018-08-18T21:31:49.294Z,4.00
2018-08-18T21:34:23.435Z,3.77
2018-08-18T21:36:57.595Z,3.90
2018-08-18T21:39:31.811Z,4.65
2018-08-18T21:42:06.168Z,4.35
2018-08-18T21:44:40.398Z,4.12
2018-08-18T21:49:54.946Z,3.90
2018-08-18T21:52:29.282Z,3.65
2018-08-18T21:55:03.310Z,3.67
2018-08-18T21:57:51.591Z,4.00
2018-08-18T22:00:31.412Z,4.00
2018-08-18T22:03:05.819Z,3.75
2018-08-18T22:05:39.758Z,4.10
2018-08-18T22:08:13.679Z,4.45
2018-08-18T22:10:52.182Z,3.90
2018-08-18T22:13:26.276Z,3.98
2018-08-18T22:16:01.253Z,3.87
2018-08-18T22:18:35.306Z,4.28
2018-08-18T22:21:13.903Z,3.95
2018-08-18T22:23:47.917Z,4.22
2018-08-18T22:26:22.251Z,3.98
2018-08-18T22:29:02.896Z,3.50
2018-08-18T22:31:36.944Z,3.62
2018-08-18T22:34:10.768Z,3.40
2018-08-18T22:36:44.617Z,3.85
2018-08-18T22:39:18.559Z,4.08
2018-08-18T22:41:52.974Z,3.83
2018-08-18T22:44:27.101Z,3.53
2018-08-18T22:47:07.816Z,3.90
2018-08-18T22:49:42.031Z,4.17
2018-08-18T22:52:15.962Z,3.87
2018-08-18T22:54:49.949Z,4.40
2018-08-18T22:57:24.221Z,4.15
2018-08-18T22:59:58.213Z,4.10
2018-08-18T23:02:32.262Z,4.50
2018-08-18T23:05:06.391Z,4.67
2018-08-18T23:07:40.368Z,4.40
2018-08-18T23:10:14.355Z,4.67
2018-08-18T23:12:48.592Z,4.27
2018-08-18T23:15:22.788Z,4.83
2018-08-18T23:17:57.408Z,4.17
2018-08-18T23:20:31.318Z,4.47
2018-08-18T23:23:05.450Z,4.60
2018-08-18T23:25:39.347Z,4.58
2018-08-18T23:28:13.355Z,5.07
2018-08-18T23:30:47.376Z,4.63
2018-08-18T23:33:21.751Z,5.15
2018-08-18T23:35:55.981Z,4.90
2018-08-18T23:38:30.427Z,4.90
2018-08-18T23:41:09.015Z,5.00
2018-08-18T23:43:42.837Z,5.10
2018-08-18T23:46:17.097Z,4.77
2018-08-18T23:48:51.475Z,5.27
2018-08-18T23:51:44.085Z,5.13
2018-08-18T23:54:21.954Z,5.43
2018-08-18T23:56:55.991Z,5.87
2018-08-18T23:59:29.901Z,5.57
